sensor_id;sensor_type;location;lat;lon;timestamp;pressure;altitude;pressure_sealevel;temperature;humidity
73245;BME280;61460;41.158;-73.238;2023-04-10T00:02:23;103131.71;;;23.65;31.75
73245;BME280;61460;41.158;-73.238;2023-04-10T00:04:53;103131.48;;;23.86;30.93
73245;BME280;61460;41.158;-73.238;2023-04-10T00:07:24;103133.67;;;23.96;31.04
73245;BME280;61460;41.158;-73.238;2023-04-10T00:09:55;103137.15;;;24.04;31.03
73245;BME280;61460;41.158;-73.238;2023-04-10T00:12:25;103138.83;;;23.91;31.21
73245;BME280;61460;41.158;-73.238;2023-04-10T00:14:56;103144.24;;;23.77;31.15
73245;BME280;61460;41.158;-73.238;2023-04-10T00:17:27;103144.35;;;23.76;31.13
73245;BME280;61460;41.158;-73.238;2023-04-10T00:19:57;103140.55;;;23.98;30.85
73245;BME280;61460;41.158;-73.238;2023-04-10T00:22:28;103141.44;;;24.00;30.61
73245;BME280;61460;41.158;-73.238;2023-04-10T00:24:59;103140.36;;;23.98;30.64
73245;BME280;61460;41.158;-73.238;2023-04-10T00:27:29;103146.21;;;24.01;30.45
73245;BME280;61460;41.158;-73.238;2023-04-10T00:30:00;103146.84;;;23.87;30.71
73245;BME280;61460;41.158;-73.238;2023-04-10T00:32:31;103146.08;;;23.86;30.51
73245;BME280;61460;41.158;-73.238;2023-04-10T00:35:01;103146.19;;;23.95;30.43
73245;BME280;61460;41.158;-73.238;2023-04-10T00:37:32;103146.86;;;23.95;30.37
73245;BME280;61460;41.158;-73.238;2023-04-10T00:40:03;103153.51;;;23.76;30.92
73245;BME280;61460;41.158;-73.238;2023-04-10T00:42:33;103156.31;;;23.87;30.64
73245;BME280;61460;41.158;-73.238;2023-04-10T00:45:05;103158.08;;;23.88;30.83
73245;BME280;61460;41.158;-73.238;2023-04-10T00:47:35;103155.81;;;23.93;31.08
73245;BME280;61460;41.158;-73.238;2023-04-10T00:50:06;103156.57;;;23.98;30.91
73245;BME280;61460;41.158;-73.238;2023-04-10T00:52:36;103157.32;;;23.98;31.16
73245;BME280;61460;41.158;-73.238;2023-04-10T00:55:07;103159.62;;;24.04;31.30
73245;BME280;61460;41.158;-73.238;2023-04-10T00:57:37;103164.93;;;24.04;31.38
73245;BME280;61460;41.158;-73.238;2023-04-10T01:00:09;103172.23;;;23.59;32.32
73245;BME280;61460;41.158;-73.238;2023-04-10T01:02:38;103177.89;;;23.68;32.03
73245;BME280;61460;41.158;-73.238;2023-04-10T01:05:10;103180.68;;;23.70;31.91
73245;BME280;61460;41.158;-73.238;2023-04-10T01:07:52;103179.57;;;23.72;31.58
73245;BME280;61460;41.158;-73.238;2023-04-10T01:10:17;103188.34;;;23.93;31.18
73245;BME280;61460;41.158;-73.238;2023-04-10T01:12:53;103188.68;;;23.91;31.17
73245;BME280;61460;41.158;-73.238;2023-04-10T01:15:15;103187.39;;;23.92;31.19
73245;BME280;61460;41.158;-73.238;2023-04-10T01:17:48;103194.67;;;23.93;30.90
73245;BME280;61460;41.158;-73.238;2023-04-10T01:20:17;103194.19;;;23.95;31.01
73245;BME280;61460;41.158;-73.238;2023-04-10T01:23:02;103195.88;;;23.98;30.76
73245;BME280;61460;41.158;-73.238;2023-04-10T01:27:55;103196.89;;;23.67;31.68
73245;BME280;61460;41.158;-73.238;2023-04-10T01:30:17;103196.45;;;23.65;32.26
73245;BME280;61460;41.158;-73.238;2023-04-10T01:32:47;103200.68;;;23.84;32.02
73245;BME280;61460;41.158;-73.238;2023-04-10T01:35:17;103199.33;;;23.90;31.87
73245;BME280;61460;41.158;-73.238;2023-04-10T01:37:49;103201.20;;;23.99;31.95
73245;BME280;61460;41.158;-73.238;2023-04-10T01:40:19;103200.44;;;24.00;31.99
73245;BME280;61460;41.158;-73.238;2023-04-10T01:42:52;103202.39;;;24.06;31.84
73245;BME280;61460;41.158;-73.238;2023-04-10T01:45:22;103200.59;;;24.07;31.93
73245;BME280;61460;41.158;-73.238;2023-04-10T01:47:50;103202.92;;;24.09;31.73
73245;BME280;61460;41.158;-73.238;2023-04-10T01:50:21;103205.06;;;24.17;32.00
73245;BME280;61460;41.158;-73.238;2023-04-10T01:52:51;103200.55;;;24.22;31.94
73245;BME280;61460;41.158;-73.238;2023-04-10T01:55:22;103195.42;;;24.22;31.94
73245;BME280;61460;41.158;-73.238;2023-04-10T01:57:52;103199.60;;;24.23;32.01
73245;BME280;61460;41.158;-73.238;2023-04-10T02:00:23;103194.53;;;24.26;31.82
73245;BME280;61460;41.158;-73.238;2023-04-10T02:02:53;103190.33;;;24.27;32.17
73245;BME280;61460;41.158;-73.238;2023-04-10T02:05:28;103185.61;;;24.31;32.05
73245;BME280;61460;41.158;-73.238;2023-04-10T02:08:01;103189.98;;;24.27;32.29
73245;BME280;61460;41.158;-73.238;2023-04-10T02:10:29;103185.58;;;24.28;32.39
73245;BME280;61460;41.158;-73.238;2023-04-10T02:13:00;103186.22;;;24.32;32.42
73245;BME280;61460;41.158;-73.238;2023-04-10T02:15:28;103186.93;;;24.32;32.45
73245;BME280;61460;41.158;-73.238;2023-04-10T02:17:58;103183.91;;;24.31;32.54
73245;BME280;61460;41.158;-73.238;2023-04-10T02:20:28;103182.47;;;24.39;32.44
73245;BME280;61460;41.158;-73.238;2023-04-10T02:22:59;103183.75;;;24.30;32.53
73245;BME280;61460;41.158;-73.238;2023-04-10T02:25:30;103179.58;;;24.45;32.43
73245;BME280;61460;41.158;-73.238;2023-04-10T02:28:03;103176.77;;;24.43;32.45
73245;BME280;61460;41.158;-73.238;2023-04-10T02:30:33;103176.98;;;24.44;32.36
73245;BME280;61460;41.158;-73.238;2023-04-10T02:33:01;103175.19;;;24.43;32.47
73245;BME280;61460;41.158;-73.238;2023-04-10T02:35:32;103172.22;;;23.91;33.33
73245;BME280;61460;41.158;-73.238;2023-04-10T02:38:02;103172.54;;;24.02;32.97
73245;BME280;61460;41.158;-73.238;2023-04-10T02:40:33;103172.11;;;23.97;33.19
73245;BME280;61460;41.158;-73.238;2023-04-10T02:43:04;103172.50;;;23.99;33.05
73245;BME280;61460;41.158;-73.238;2023-04-10T02:45:34;103171.84;;;24.09;33.04
73245;BME280;61460;41.158;-73.238;2023-04-10T02:48:05;103174.87;;;23.98;33.07
73245;BME280;61460;41.158;-73.238;2023-04-10T02:50:35;103170.06;;;23.98;33.22
73245;BME280;61460;41.158;-73.238;2023-04-10T02:53:06;103172.21;;;24.01;33.01
73245;BME280;61460;41.158;-73.238;2023-04-10T02:55:37;103172.85;;;24.01;33.29
73245;BME280;61460;41.158;-73.238;2023-04-10T02:58:08;103171.93;;;24.05;32.98
73245;BME280;61460;41.158;-73.238;2023-04-10T03:00:38;103169.29;;;23.97;32.95
73245;BME280;61460;41.158;-73.238;2023-04-10T03:03:09;103170.71;;;23.99;33.11
73245;BME280;61460;41.158;-73.238;2023-04-10T03:05:39;103166.66;;;23.92;33.18
73245;BME280;61460;41.158;-73.238;2023-04-10T03:08:10;103167.78;;;23.92;33.05
73245;BME280;61460;41.158;-73.238;2023-04-10T03:13:11;103163.48;;;23.88;33.19
73245;BME280;61460;41.158;-73.238;2023-04-10T03:15:42;103162.93;;;23.84;33.25
73245;BME280;61460;41.158;-73.238;2023-04-10T03:18:13;103167.36;;;23.83;33.21
73245;BME280;61460;41.158;-73.238;2023-04-10T03:20:44;103161.38;;;23.61;33.67
73245;BME280;61460;41.158;-73.238;2023-04-10T03:23:14;103160.46;;;23.52;34.01
73245;BME280;61460;41.158;-73.238;2023-04-10T03:25:49;103167.62;;;23.72;33.37
73245;BME280;61460;41.158;-73.238;2023-04-10T03:28:15;103163.15;;;23.70;33.59
73245;BME280;61460;41.158;-73.238;2023-04-10T03:30:46;103163.64;;;23.78;33.30
73245;BME280;61460;41.158;-73.238;2023-04-10T03:33:16;103163.29;;;23.71;33.38
73245;BME280;61460;41.158;-73.238;2023-04-10T03:35:47;103166.36;;;23.64;33.59
73245;BME280;61460;41.158;-73.238;2023-04-10T03:38:18;103165.47;;;23.74;33.47
73245;BME280;61460;41.158;-73.238;2023-04-10T03:40:48;103159.34;;;23.65;33.56
73245;BME280;61460;41.158;-73.238;2023-04-10T03:43:20;103154.20;;;23.64;33.37
73245;BME280;61460;41.158;-73.238;2023-04-10T03:45:50;103155.17;;;23.81;33.00
73245;BME280;61460;41.158;-73.238;2023-04-10T03:48:20;103156.03;;;23.72;33.26
73245;BME280;61460;41.158;-73.238;2023-04-10T03:50:51;103156.21;;;23.72;33.25
73245;BME280;61460;41.158;-73.238;2023-04-10T03:53:22;103150.72;;;23.71;33.22
73245;BME280;61460;41.158;-73.238;2023-04-10T03:55:52;103151.38;;;23.65;33.34
73245;BME280;61460;41.158;-73.238;2023-04-10T03:58:23;103150.73;;;23.73;33.26
73245;BME280;61460;41.158;-73.238;2023-04-10T04:00:54;103153.98;;;23.65;33.44
73245;BME280;61460;41.158;-73.238;2023-04-10T04:03:24;103152.84;;;23.58;33.82
73245;BME280;61460;41.158;-73.238;2023-04-10T04:05:55;103151.03;;;23.42;34.41
73245;BME280;61460;41.158;-73.238;2023-04-10T04:08:26;103152.69;;;23.60;33.75
73245;BME280;61460;41.158;-73.238;2023-04-10T04:10:56;103151.49;;;23.68;34.20
73245;BME280;61460;41.158;-73.238;2023-04-10T04:13:27;103151.61;;;23.70;34.21
73245;BME280;61460;41.158;-73.238;2023-04-10T04:15:57;103148.98;;;23.59;34.71
73245;BME280;61460;41.158;-73.238;2023-04-10T04:18:28;103151.75;;;23.64;34.40
73245;BME280;61460;41.158;-73.238;2023-04-10T04:21:00;103152.96;;;23.75;34.23
73245;BME280;61460;41.158;-73.238;2023-04-10T04:23:29;103151.88;;;23.73;34.52
73245;BME280;61460;41.158;-73.238;2023-04-10T04:26:00;103150.22;;;23.78;34.19
73245;BME280;61460;41.158;-73.238;2023-04-10T04:28:30;103157.44;;;23.78;34.13
73245;BME280;61460;41.158;-73.238;2023-04-10T04:31:01;103151.19;;;23.79;34.20
73245;BME280;61460;41.158;-73.238;2023-04-10T04:33:32;103151.02;;;23.67;34.44
73245;BME280;61460;41.158;-73.238;2023-04-10T04:36:03;103147.36;;;23.56;34.07
73245;BME280;61460;41.158;-73.238;2023-04-10T04:38:33;103153.41;;;23.68;34.68
73245;BME280;61460;41.158;-73.238;2023-04-10T04:41:04;103151.98;;;23.63;34.56
73245;BME280;61460;41.158;-73.238;2023-04-10T04:43:34;103154.12;;;23.68;34.43
73245;BME280;61460;41.158;-73.238;2023-04-10T04:46:05;103153.90;;;23.67;35.00
73245;BME280;61460;41.158;-73.238;2023-04-10T04:48:36;103154.20;;;23.68;34.65
73245;BME280;61460;41.158;-73.238;2023-04-10T04:51:06;103153.94;;;23.77;34.32
73245;BME280;61460;41.158;-73.238;2023-04-10T04:53:37;103153.70;;;23.72;34.43
73245;BME280;61460;41.158;-73.238;2023-04-10T04:56:08;103155.93;;;23.63;34.63
73245;BME280;61460;41.158;-73.238;2023-04-10T04:58:38;103155.91;;;23.76;34.33
73245;BME280;61460;41.158;-73.238;2023-04-10T05:01:09;103156.66;;;23.47;34.51
73245;BME280;61460;41.158;-73.238;2023-04-10T05:03:39;103161.98;;;23.43;34.96
73245;BME280;61460;41.158;-73.238;2023-04-10T05:06:10;103159.29;;;23.51;34.37
73245;BME280;61460;41.158;-73.238;2023-04-10T05:08:41;103158.00;;;23.69;34.47
73245;BME280;61460;41.158;-73.238;2023-04-10T05:11:11;103161.78;;;23.63;34.34
73245;BME280;61460;41.158;-73.238;2023-04-10T05:13:42;103161.34;;;23.71;34.31
73245;BME280;61460;41.158;-73.238;2023-04-10T05:16:13;103154.05;;;23.75;34.25
73245;BME280;61460;41.158;-73.238;2023-04-10T05:18:44;103154.46;;;23.85;34.20
73245;BME280;61460;41.158;-73.238;2023-04-10T05:21:14;103152.86;;;23.79;34.38
73245;BME280;61460;41.158;-73.238;2023-04-10T05:23:45;103153.90;;;23.87;34.54
73245;BME280;61460;41.158;-73.238;2023-04-10T05:26:15;103149.95;;;23.84;34.41
73245;BME280;61460;41.158;-73.238;2023-04-10T05:28:46;103147.26;;;23.66;34.45
73245;BME280;61460;41.158;-73.238;2023-04-10T05:31:17;103140.11;;;23.43;34.47
73245;BME280;61460;41.158;-73.238;2023-04-10T05:33:47;103141.05;;;23.64;34.02
73245;BME280;61460;41.158;-73.238;2023-04-10T05:36:18;103138.84;;;23.78;34.18
73245;BME280;61460;41.158;-73.238;2023-04-10T05:38:48;103139.94;;;23.65;34.54
73245;BME280;61460;41.158;-73.238;2023-04-10T05:41:19;103138.26;;;23.80;34.38
73245;BME280;61460;41.158;-73.238;2023-04-10T05:43:50;103143.89;;;23.76;34.39
73245;BME280;61460;41.158;-73.238;2023-04-10T05:46:20;103133.30;;;23.77;34.28
73245;BME280;61460;41.158;-73.238;2023-04-10T05:48:52;103136.41;;;23.79;34.37
73245;BME280;61460;41.158;-73.238;2023-04-10T05:51:22;103136.92;;;23.78;34.39
73245;BME280;61460;41.158;-73.238;2023-04-10T05:53:52;103133.83;;;23.71;34.50
73245;BME280;61460;41.158;-73.238;2023-04-10T05:56:23;103134.15;;;23.41;34.62
73245;BME280;61460;41.158;-73.238;2023-04-10T05:58:53;103130.14;;;23.48;34.72
73245;BME280;61460;41.158;-73.238;2023-04-10T06:01:24;103124.82;;;23.71;34.42
73245;BME280;61460;41.158;-73.238;2023-04-10T06:03:55;103121.55;;;23.64;34.51
73245;BME280;61460;41.158;-73.238;2023-04-10T06:06:25;103118.21;;;23.76;34.33
73245;BME280;61460;41.158;-73.238;2023-04-10T06:08:56;103114.16;;;23.79;34.40
73245;BME280;61460;41.158;-73.238;2023-04-10T06:11:27;103113.51;;;23.80;34.63
73245;BME280;61460;41.158;-73.238;2023-04-10T06:13:57;103108.95;;;23.76;34.99
73245;BME280;61460;41.158;-73.238;2023-04-10T06:16:28;103104.55;;;23.70;35.59
73245;BME280;61460;41.158;-73.238;2023-04-10T06:18:59;103104.88;;;23.49;35.39
73245;BME280;61460;41.158;-73.238;2023-04-10T06:21:29;103103.42;;;23.32;35.11
73245;BME280;61460;41.158;-73.238;2023-04-10T06:24:00;103100.32;;;23.33;34.86
73245;BME280;61460;41.158;-73.238;2023-04-10T06:26:31;103092.03;;;23.60;35.14
73245;BME280;61460;41.158;-73.238;2023-04-10T06:29:01;103094.89;;;23.58;35.30
73245;BME280;61460;41.158;-73.238;2023-04-10T06:31:32;103087.71;;;23.67;35.69
73245;BME280;61460;41.158;-73.238;2023-04-10T06:34:02;103090.50;;;23.67;35.28
73245;BME280;61460;41.158;-73.238;2023-04-10T06:36:33;103086.67;;;23.69;35.27
73245;BME280;61460;41.158;-73.238;2023-04-10T06:39:04;103084.28;;;23.57;35.27
73245;BME280;61460;41.158;-73.238;2023-04-10T06:41:34;103080.17;;;23.47;35.70
73245;BME280;61460;41.158;-73.238;2023-04-10T06:44:05;103076.90;;;23.21;35.34
73245;BME280;61460;41.158;-73.238;2023-04-10T06:46:36;103075.53;;;23.25;35.69
73245;BME280;61460;41.158;-73.238;2023-04-10T06:49:06;103077.71;;;23.38;34.91
73245;BME280;61460;41.158;-73.238;2023-04-10T06:51:37;103073.04;;;23.60;34.75
73245;BME280;61460;41.158;-73.238;2023-04-10T06:54:08;103078.87;;;23.57;34.94
73245;BME280;61460;41.158;-73.238;2023-04-10T06:56:38;103077.87;;;23.67;34.56
73245;BME280;61460;41.158;-73.238;2023-04-10T06:59:09;103072.86;;;23.63;34.97
73245;BME280;61460;41.158;-73.238;2023-04-10T07:01:40;103076.18;;;23.35;34.95
73245;BME280;61460;41.158;-73.238;2023-04-10T07:04:10;103073.84;;;23.43;34.61
73245;BME280;61460;41.158;-73.238;2023-04-10T07:06:41;103077.83;;;23.61;34.60
73245;BME280;61460;41.158;-73.238;2023-04-10T07:09:12;103081.05;;;23.69;34.43
73245;BME280;61460;41.158;-73.238;2023-04-10T07:11:42;103079.51;;;23.60;34.62
73245;BME280;61460;41.158;-73.238;2023-04-10T07:14:13;103080.09;;;23.55;34.76
73245;BME280;61460;41.158;-73.238;2023-04-10T07:16:44;103080.40;;;23.65;34.59
73245;BME280;61460;41.158;-73.238;2023-04-10T07:19:14;103075.48;;;23.48;34.39
73245;BME280;61460;41.158;-73.238;2023-04-10T07:21:45;103078.09;;;23.37;34.67
73245;BME280;61460;41.158;-73.238;2023-04-10T07:24:16;103081.02;;;23.49;34.76
73245;BME280;61460;41.158;-73.238;2023-04-10T07:26:46;103076.79;;;23.55;34.57
73245;BME280;61460;41.158;-73.238;2023-04-10T07:29:17;103079.41;;;23.56;34.24
73245;BME280;61460;41.158;-73.238;2023-04-10T07:31:47;103075.68;;;23.59;34.35
73245;BME280;61460;41.158;-73.238;2023-04-10T07:34:18;103076.10;;;23.61;34.40
73245;BME280;61460;41.158;-73.238;2023-04-10T07:36:49;103078.98;;;23.25;34.72
73245;BME280;61460;41.158;-73.238;2023-04-10T07:39:19;103076.18;;;23.21;34.93
73245;BME280;61460;41.158;-73.238;2023-04-10T07:41:52;103082.04;;;23.48;34.33
73245;BME280;61460;41.158;-73.238;2023-04-10T07:44:20;103084.36;;;23.57;34.34
73245;BME280;61460;41.158;-73.238;2023-04-10T07:46:51;103087.49;;;23.59;34.29
73245;BME280;61460;41.158;-73.238;2023-04-10T07:49:22;103091.70;;;23.53;34.28
73245;BME280;61460;41.158;-73.238;2023-04-10T07:51:52;103089.91;;;23.49;34.31
73245;BME280;61460;41.158;-73.238;2023-04-10T07:54:23;103088.00;;;23.31;34.50
73245;BME280;61460;41.158;-73.238;2023-04-10T07:56:54;103087.30;;;23.16;34.84
73245;BME280;61460;41.158;-73.238;2023-04-10T07:59:26;103087.30;;;22.93;35.26
73245;BME280;61460;41.158;-73.238;2023-04-10T08:01:55;103090.31;;;23.15;34.62
73245;BME280;61460;41.158;-73.238;2023-04-10T08:04:26;103090.11;;;23.42;34.47
73245;BME280;61460;41.158;-73.238;2023-04-10T08:06:56;103092.32;;;23.40;34.91
73245;BME280;61460;41.158;-73.238;2023-04-10T08:09:27;103094.80;;;23.46;34.44
73245;BME280;61460;41.158;-73.238;2023-04-10T08:11:58;103091.38;;;23.22;34.55
73245;BME280;61460;41.158;-73.238;2023-04-10T08:14:28;103087.18;;;23.18;34.80
73245;BME280;61460;41.158;-73.238;2023-04-10T08:16:59;103089.52;;;23.35;34.59
73245;BME280;61460;41.158;-73.238;2023-04-10T08:19:29;103091.68;;;23.46;34.46
73245;BME280;61460;41.158;-73.238;2023-04-10T08:22:00;103096.73;;;23.45;34.55
73245;BME280;61460;41.158;-73.238;2023-04-10T08:24:31;103092.47;;;23.45;34.60
73245;BME280;61460;41.158;-73.238;2023-04-10T08:27:01;103088.46;;;23.44;34.73
73245;BME280;61460;41.158;-73.238;2023-04-10T08:29:32;103089.40;;;23.28;34.75
73245;BME280;61460;41.158;-73.238;2023-04-10T08:32:03;103092.43;;;23.23;35.00
73245;BME280;61460;41.158;-73.238;2023-04-10T08:34:33;103092.35;;;23.37;35.00
73245;BME280;61460;41.158;-73.238;2023-04-10T08:37:05;103094.73;;;23.45;34.68
73245;BME280;61460;41.158;-73.238;2023-04-10T08:39:35;103094.64;;;23.52;34.69
73245;BME280;61460;41.158;-73.238;2023-04-10T08:42:06;103092.06;;;23.31;35.17
73245;BME280;61460;41.158;-73.238;2023-04-10T08:44:36;103091.33;;;23.49;35.18
73245;BME280;61460;41.158;-73.238;2023-04-10T08:47:07;103097.19;;;23.15;35.01
73245;BME280;61460;41.158;-73.238;2023-04-10T08:49:40;103098.78;;;23.21;34.93
73245;BME280;61460;41.158;-73.238;2023-04-10T08:52:11;103104.34;;;23.33;34.74
73245;BME280;61460;41.158;-73.238;2023-04-10T08:54:39;103100.32;;;23.43;34.77
73245;BME280;61460;41.158;-73.238;2023-04-10T08:57:12;103099.68;;;23.31;35.43
73245;BME280;61460;41.158;-73.238;2023-04-10T08:59:40;103099.76;;;23.36;35.44
73245;BME280;61460;41.158;-73.238;2023-04-10T09:02:12;103097.13;;;23.31;35.22
73245;BME280;61460;41.158;-73.238;2023-04-10T09:04:46;103096.06;;;23.18;35.19
73245;BME280;61460;41.158;-73.238;2023-04-10T09:07:12;103096.52;;;23.16;35.40
73245;BME280;61460;41.158;-73.238;2023-04-10T09:09:43;103096.35;;;23.23;35.14
73245;BME280;61460;41.158;-73.238;2023-04-10T09:12:14;103094.89;;;23.26;35.25
73245;BME280;61460;41.158;-73.238;2023-04-10T09:14:44;103094.49;;;23.25;35.58
73245;BME280;61460;41.158;-73.238;2023-04-10T09:17:16;103091.92;;;23.16;35.53
73245;BME280;61460;41.158;-73.238;2023-04-10T09:19:47;103088.72;;;23.05;34.93
73245;BME280;61460;41.158;-73.238;2023-04-10T09:22:16;103089.08;;;23.15;34.78
73245;BME280;61460;41.158;-73.238;2023-04-10T09:24:47;103095.53;;;23.33;34.84
73245;BME280;61460;41.158;-73.238;2023-04-10T09:29:48;103091.25;;;23.22;34.86
73245;BME280;61460;41.158;-73.238;2023-04-10T09:34:54;103089.07;;;23.12;35.23
73245;BME280;61460;41.158;-73.238;2023-04-10T09:37:20;103088.36;;;22.92;35.13
73245;BME280;61460;41.158;-73.238;2023-04-10T09:39:51;103091.03;;;23.12;34.89
73245;BME280;61460;41.158;-73.238;2023-04-10T09:42:30;103096.34;;;23.22;35.13
73245;BME280;61460;41.158;-73.238;2023-04-10T09:44:54;103098.58;;;23.16;35.06
73245;BME280;61460;41.158;-73.238;2023-04-10T09:47:23;103097.87;;;23.12;35.17
73245;BME280;61460;41.158;-73.238;2023-04-10T09:49:54;103097.43;;;23.15;35.26
73245;BME280;61460;41.158;-73.238;2023-04-10T09:52:26;103095.38;;;23.24;34.91
73245;BME280;61460;41.158;-73.238;2023-04-10T09:54:56;103092.75;;;22.86;35.37
73245;BME280;61460;41.158;-73.238;2023-04-10T09:57:27;103091.48;;;22.82;35.69
73245;BME280;61460;41.158;-73.238;2023-04-10T09:59:57;103092.42;;;23.04;35.05
73245;BME280;61460;41.158;-73.238;2023-04-10T10:02:29;103089.20;;;23.19;35.21
73245;BME280;61460;41.158;-73.238;2023-04-10T10:04:58;103091.21;;;23.25;35.02
73245;BME280;61460;41.158;-73.238;2023-04-10T10:07:29;103093.78;;;23.07;35.64
73245;BME280;61460;41.158;-73.238;2023-04-10T10:09:59;103095.55;;;23.17;35.24
73245;BME280;61460;41.158;-73.238;2023-04-10T10:12:34;103096.97;;;22.97;34.94
73245;BME280;61460;41.158;-73.238;2023-04-10T10:15:07;103097.40;;;23.07;34.59
73245;BME280;61460;41.158;-73.238;2023-04-10T10:17:35;103103.14;;;23.25;34.69
73245;BME280;61460;41.158;-73.238;2023-04-10T10:20:04;103103.62;;;23.22;34.67
73245;BME280;61460;41.158;-73.238;2023-04-10T10:22:32;103108.31;;;23.22;34.77
73245;BME280;61460;41.158;-73.238;2023-04-10T10:25:04;103107.72;;;23.10;35.37
73245;BME280;61460;41.158;-73.238;2023-04-10T10:27:36;103113.53;;;23.17;34.84
73245;BME280;61460;41.158;-73.238;2023-04-10T10:30:05;103116.57;;;23.03;35.06
73245;BME280;61460;41.158;-73.238;2023-04-10T10:32:34;103122.37;;;22.82;35.03
73245;BME280;61460;41.158;-73.238;2023-04-10T10:35:06;103127.32;;;22.97;34.85
73245;BME280;61460;41.158;-73.238;2023-04-10T10:37:36;103130.42;;;23.08;35.11
73245;BME280;61460;41.158;-73.238;2023-04-10T10:40:11;103133.30;;;23.23;34.89
73245;BME280;61460;41.158;-73.238;2023-04-10T10:42:44;103137.62;;;23.20;35.11
73245;BME280;61460;41.158;-73.238;2023-04-10T10:45:11;103138.03;;;23.18;35.12
73245;BME280;61460;41.158;-73.238;2023-04-10T10:47:42;103138.55;;;23.09;35.33
73245;BME280;61460;41.158;-73.238;2023-04-10T10:50:09;103142.73;;;23.00;35.35
73245;BME280;61460;41.158;-73.238;2023-04-10T10:52:43;103139.75;;;22.87;35.85
73245;BME280;61460;41.158;-73.238;2023-04-10T10:57:46;103141.46;;;23.18;35.86
73245;BME280;61460;41.158;-73.238;2023-04-10T11:00:13;103135.87;;;23.11;36.85
73245;BME280;61460;41.158;-73.238;2023-04-10T11:02:42;103144.14;;;23.19;37.25
73245;BME280;61460;41.158;-73.238;2023-04-10T11:10:14;103141.94;;;23.12;37.32
73245;BME280;61460;41.158;-73.238;2023-04-10T11:15:21;103151.66;;;23.02;37.62
73245;BME280;61460;41.158;-73.238;2023-04-10T11:17:48;103152.23;;;23.22;37.16
73245;BME280;61460;41.158;-73.238;2023-04-10T11:20:17;103158.73;;;23.22;37.00
73245;BME280;61460;41.158;-73.238;2023-04-10T11:25:18;103156.76;;;23.35;36.65
73245;BME280;61460;41.158;-73.238;2023-04-10T11:27:49;103158.63;;;23.36;36.68
73245;BME280;61460;41.158;-73.238;2023-04-10T11:30:25;103155.65;;;23.34;37.11
73245;BME280;61460;41.158;-73.238;2023-04-10T11:32:50;103157.97;;;23.18;36.71
73245;BME280;61460;41.158;-73.238;2023-04-10T11:35:21;103162.32;;;23.32;36.83
73245;BME280;61460;41.158;-73.238;2023-04-10T11:37:52;103168.91;;;23.30;37.14
73245;BME280;61460;41.158;-73.238;2023-04-10T11:40:22;103168.76;;;23.47;36.54
73245;BME280;61460;41.158;-73.238;2023-04-10T11:45:26;103169.24;;;23.33;37.23
73245;BME280;61460;41.158;-73.238;2023-04-10T11:47:54;103160.73;;;23.41;36.87
73245;BME280;61460;41.158;-73.238;2023-04-10T11:50:28;103166.31;;;23.38;37.03
73245;BME280;61460;41.158;-73.238;2023-04-10T11:52:55;103162.60;;;23.36;36.94
73245;BME280;61460;41.158;-73.238;2023-04-10T11:57:56;103156.06;;;23.28;37.14
73245;BME280;61460;41.158;-73.238;2023-04-10T12:00:26;103159.11;;;23.56;37.09
73245;BME280;61460;41.158;-73.238;2023-04-10T12:02:57;103158.59;;;23.54;37.01
73245;BME280;61460;41.158;-73.238;2023-04-10T12:05:27;103161.37;;;23.56;36.84
73245;BME280;61460;41.158;-73.238;2023-04-10T12:07:58;103163.17;;;23.71;36.71
73245;BME280;61460;41.158;-73.238;2023-04-10T12:12:58;103158.31;;;23.59;37.08
73245;BME280;61460;41.158;-73.238;2023-04-10T12:15:29;103160.20;;;23.76;36.88
73245;BME280;61460;41.158;-73.238;2023-04-10T12:17:59;103156.52;;;23.62;36.95
73245;BME280;61460;41.158;-73.238;2023-04-10T12:20:30;103150.07;;;23.70;36.80
73245;BME280;61460;41.158;-73.238;2023-04-10T12:23:00;103152.89;;;23.81;36.32
73245;BME280;61460;41.158;-73.238;2023-04-10T12:25:31;103147.14;;;23.96;36.77
73245;BME280;61460;41.158;-73.238;2023-04-10T12:28:01;103147.58;;;23.96;36.37
73245;BME280;61460;41.158;-73.238;2023-04-10T12:30:31;103149.42;;;24.03;36.23
73245;BME280;61460;41.158;-73.238;2023-04-10T12:33:02;103148.25;;;24.04;36.18
73245;BME280;61460;41.158;-73.238;2023-04-10T12:35:37;103148.21;;;24.19;35.81
73245;BME280;61460;41.158;-73.238;2023-04-10T12:38:03;103143.06;;;24.11;35.87
73245;BME280;61460;41.158;-73.238;2023-04-10T12:40:33;103138.55;;;24.23;35.81
73245;BME280;61460;41.158;-73.238;2023-04-10T12:43:04;103130.63;;;24.08;36.07
73245;BME280;61460;41.158;-73.238;2023-04-10T12:45:40;103133.82;;;24.40;35.49
73245;BME280;61460;41.158;-73.238;2023-04-10T12:48:04;103132.59;;;24.44;35.26
73245;BME280;61460;41.158;-73.238;2023-04-10T12:53:05;103131.39;;;24.54;35.25
73245;BME280;61460;41.158;-73.238;2023-04-10T12:55:36;103128.08;;;24.52;35.38
73245;BME280;61460;41.158;-73.238;2023-04-10T13:00:36;103127.58;;;24.56;35.38
73245;BME280;61460;41.158;-73.238;2023-04-10T13:03:06;103124.36;;;24.60;35.35
73245;BME280;61460;41.158;-73.238;2023-04-10T13:05:37;103125.79;;;24.63;35.31
73245;BME280;61460;41.158;-73.238;2023-04-10T13:08:07;103122.96;;;24.71;35.23
73245;BME280;61460;41.158;-73.238;2023-04-10T13:10:38;103118.59;;;24.77;35.06
73245;BME280;61460;41.158;-73.238;2023-04-10T13:13:09;103115.44;;;24.76;34.81
73245;BME280;61460;41.158;-73.238;2023-04-10T13:15:40;103112.95;;;24.93;34.49
73245;BME280;61460;41.158;-73.238;2023-04-10T13:18:10;103114.52;;;25.03;34.39
73245;BME280;61460;41.158;-73.238;2023-04-10T13:20:40;103111.33;;;25.01;34.54
73245;BME280;61460;41.158;-73.238;2023-04-10T13:23:10;103108.21;;;25.00;34.56